Terminal Aerodrome Forecast
Issued by NWS Central Illinois

Home | Current Version | Previous Version | Text Only | Print | Product List | Glossary On
Versions: 1 2 3 4 5 6 7 8 9 10 11 12 13 14 15 16 17 18
000
FTUS43 KILX 211742
TAFPIA
TAF
KPIA 211742Z 2118/2218 15008KT P6SM SCT040 SCT250
     FM212000 19008KT P6SM VCTS SCT040CB BKN250
     FM220000 19006KT P6SM SCT250
     FM220400 22008KT P6SM VCTS SCT040CB BKN120
     FM221400 24008KT P6SM BKN120=

USA.gov is the U.S. government's official web portal to all federal, state and local government web resources and services.